sensor_id;sensor_type;location;lat;lon;timestamp;pressure;altitude;pressure_sealevel;temperature;humidity
59873;BME280;50750;51.636;4.948;2023-07-09T00:01:52;101824.91;;;26.20;53.38
59873;BME280;50750;51.636;4.948;2023-07-09T00:04:19;101822.35;;;26.21;53.39
59873;BME280;50750;51.636;4.948;2023-07-09T00:06:45;101821.51;;;26.20;53.39
59873;BME280;50750;51.636;4.948;2023-07-09T00:09:17;101822.75;;;26.20;53.35
59873;BME280;50750;51.636;4.948;2023-07-09T00:11:44;101822.02;;;26.20;53.46
59873;BME280;50750;51.636;4.948;2023-07-09T00:14:13;101825.23;;;26.21;53.36
59873;BME280;50750;51.636;4.948;2023-07-09T00:16:41;101826.66;;;26.20;53.37
59873;BME280;50750;51.636;4.948;2023-07-09T00:19:13;101826.33;;;26.20;53.41
59873;BME280;50750;51.636;4.948;2023-07-09T00:21:40;101830.44;;;26.20;53.40
59873;BME280;50750;51.636;4.948;2023-07-09T00:24:07;101833.44;;;26.21;53.27
59873;BME280;50750;51.636;4.948;2023-07-09T00:26:37;101836.16;;;26.21;53.30
59873;BME280;50750;51.636;4.948;2023-07-09T00:29:04;101834.58;;;26.20;53.38
59873;BME280;50750;51.636;4.948;2023-07-09T00:31:31;101839.06;;;26.20;53.28
59873;BME280;50750;51.636;4.948;2023-07-09T00:33:58;101835.26;;;26.21;53.32
59873;BME280;50750;51.636;4.948;2023-07-09T00:36:28;101833.13;;;26.20;53.47
59873;BME280;50750;51.636;4.948;2023-07-09T00:38:55;101833.48;;;26.21;53.41
59873;BME280;50750;51.636;4.948;2023-07-09T00:41:25;101833.67;;;26.20;53.35
59873;BME280;50750;51.636;4.948;2023-07-09T00:43:54;101831.38;;;26.20;53.37
59873;BME280;50750;51.636;4.948;2023-07-09T00:48:59;101832.80;;;26.20;53.28
59873;BME280;50750;51.636;4.948;2023-07-09T00:51:27;101832.98;;;26.20;53.40
59873;BME280;50750;51.636;4.948;2023-07-09T00:53:58;101832.11;;;26.20;53.40
59873;BME280;50750;51.636;4.948;2023-07-09T00:56:30;101831.55;;;26.20;53.25
59873;BME280;50750;51.636;4.948;2023-07-09T00:58:59;101834.10;;;26.20;53.42
59873;BME280;50750;51.636;4.948;2023-07-09T01:01:27;101837.16;;;26.20;53.30
59873;BME280;50750;51.636;4.948;2023-07-09T01:03:57;101836.83;;;26.20;53.17
59873;BME280;50750;51.636;4.948;2023-07-09T01:06:39;101836.08;;;26.20;53.25
59873;BME280;50750;51.636;4.948;2023-07-09T01:09:08;101838.64;;;26.19;53.18
59873;BME280;50750;51.636;4.948;2023-07-09T01:11:35;101839.34;;;26.19;53.39
59873;BME280;50750;51.636;4.948;2023-07-09T01:14:07;101842.73;;;26.19;53.28
59873;BME280;50750;51.636;4.948;2023-07-09T01:16:36;101841.69;;;26.19;53.30
59873;BME280;50750;51.636;4.948;2023-07-09T01:19:05;101844.56;;;26.19;53.23
59873;BME280;50750;51.636;4.948;2023-07-09T01:21:32;101847.10;;;26.19;53.29
59873;BME280;50750;51.636;4.948;2023-07-09T01:23:59;101846.54;;;26.19;53.37
59873;BME280;50750;51.636;4.948;2023-07-09T01:26:37;101849.93;;;26.19;53.38
59873;BME280;50750;51.636;4.948;2023-07-09T01:29:05;101850.70;;;26.19;53.35
59873;BME280;50750;51.636;4.948;2023-07-09T01:31:32;101853.02;;;26.19;53.29
59873;BME280;50750;51.636;4.948;2023-07-09T01:33:58;101848.36;;;26.19;53.39
59873;BME280;50750;51.636;4.948;2023-07-09T01:36:25;101852.70;;;26.18;53.30
59873;BME280;50750;51.636;4.948;2023-07-09T01:38:52;101859.85;;;26.19;53.19
59873;BME280;50750;51.636;4.948;2023-07-09T01:41:20;101860.06;;;26.18;53.27
59873;BME280;50750;51.636;4.948;2023-07-09T01:43:46;101860.60;;;26.18;53.20
59873;BME280;50750;51.636;4.948;2023-07-09T01:46:13;101860.27;;;26.18;53.29
59873;BME280;50750;51.636;4.948;2023-07-09T01:48:40;101861.70;;;26.18;53.38
59873;BME280;50750;51.636;4.948;2023-07-09T01:51:12;101861.34;;;26.18;53.39
59873;BME280;50750;51.636;4.948;2023-07-09T01:53:40;101861.20;;;26.18;53.47
59873;BME280;50750;51.636;4.948;2023-07-09T01:56:07;101857.98;;;26.17;53.27
59873;BME280;50750;51.636;4.948;2023-07-09T01:58:34;101855.66;;;26.17;53.27
59873;BME280;50750;51.636;4.948;2023-07-09T02:01:01;101849.43;;;26.17;53.28
59873;BME280;50750;51.636;4.948;2023-07-09T02:03:27;101849.77;;;26.17;53.34
59873;BME280;50750;51.636;4.948;2023-07-09T02:05:54;101850.86;;;26.17;53.23
59873;BME280;50750;51.636;4.948;2023-07-09T02:08:21;101851.07;;;26.17;53.31
59873;BME280;50750;51.636;4.948;2023-07-09T02:10:48;101852.14;;;26.16;53.34
59873;BME280;50750;51.636;4.948;2023-07-09T02:13:15;101854.12;;;26.16;53.41
59873;BME280;50750;51.636;4.948;2023-07-09T02:15:43;101847.70;;;26.16;53.35
59873;BME280;50750;51.636;4.948;2023-07-09T02:18:11;101847.52;;;26.16;53.33
59873;BME280;50750;51.636;4.948;2023-07-09T02:20:37;101844.66;;;26.16;53.28
59873;BME280;50750;51.636;4.948;2023-07-09T02:23:05;101842.88;;;26.15;53.26
59873;BME280;50750;51.636;4.948;2023-07-09T02:25:32;101841.09;;;26.15;53.25
59873;BME280;50750;51.636;4.948;2023-07-09T02:27:59;101839.50;;;26.15;53.27
59873;BME280;50750;51.636;4.948;2023-07-09T02:30:26;101839.02;;;26.15;53.35
59873;BME280;50750;51.636;4.948;2023-07-09T02:32:52;101841.71;;;26.14;53.32
59873;BME280;50750;51.636;4.948;2023-07-09T02:35:21;101844.58;;;26.15;53.39
59873;BME280;50750;51.636;4.948;2023-07-09T02:37:48;101841.73;;;26.14;53.32
59873;BME280;50750;51.636;4.948;2023-07-09T02:40:15;101843.02;;;26.14;53.30
59873;BME280;50750;51.636;4.948;2023-07-09T02:42:42;101842.30;;;26.14;53.27
59873;BME280;50750;51.636;4.948;2023-07-09T02:45:09;101839.26;;;26.14;53.36
59873;BME280;50750;51.636;4.948;2023-07-09T02:47:36;101840.91;;;26.13;53.31
59873;BME280;50750;51.636;4.948;2023-07-09T02:50:02;101839.13;;;26.13;53.34
59873;BME280;50750;51.636;4.948;2023-07-09T02:52:29;101836.30;;;26.13;53.37
59873;BME280;50750;51.636;4.948;2023-07-09T02:54:56;101836.33;;;26.12;53.25
59873;BME280;50750;51.636;4.948;2023-07-09T02:57:22;101838.31;;;26.12;53.26
59873;BME280;50750;51.636;4.948;2023-07-09T02:59:48;101842.28;;;26.12;53.29
59873;BME280;50750;51.636;4.948;2023-07-09T03:02:15;101840.69;;;26.12;53.26
59873;BME280;50750;51.636;4.948;2023-07-09T03:04:41;101844.82;;;26.12;53.24
59873;BME280;50750;51.636;4.948;2023-07-09T03:07:08;101841.96;;;26.11;53.15
59873;BME280;50750;51.636;4.948;2023-07-09T03:09:34;101844.85;;;26.11;53.23
59873;BME280;50750;51.636;4.948;2023-07-09T03:12:00;101846.30;;;26.11;53.24
59873;BME280;50750;51.636;4.948;2023-07-09T03:14:27;101844.00;;;26.10;53.32
59873;BME280;50750;51.636;4.948;2023-07-09T03:16:54;101841.68;;;26.10;53.18
59873;BME280;50750;51.636;4.948;2023-07-09T03:19:22;101843.33;;;26.10;53.21
59873;BME280;50750;51.636;4.948;2023-07-09T03:21:48;101843.16;;;26.10;53.24
59873;BME280;50750;51.636;4.948;2023-07-09T03:24:14;101841.96;;;26.09;53.24
59873;BME280;50750;51.636;4.948;2023-07-09T03:26:45;101843.38;;;26.09;53.30
59873;BME280;50750;51.636;4.948;2023-07-09T03:29:12;101843.97;;;26.09;53.05
59873;BME280;50750;51.636;4.948;2023-07-09T03:31:38;101840.95;;;26.08;53.30
59873;BME280;50750;51.636;4.948;2023-07-09T03:34:05;101843.10;;;26.09;53.21
59873;BME280;50750;51.636;4.948;2023-07-09T03:36:31;101850.28;;;26.09;53.24
59873;BME280;50750;51.636;4.948;2023-07-09T03:38:58;101850.31;;;26.08;53.20
59873;BME280;50750;51.636;4.948;2023-07-09T03:41:25;101847.45;;;26.08;53.24
59873;BME280;50750;51.636;4.948;2023-07-09T03:43:51;101852.65;;;26.08;53.32
59873;BME280;50750;51.636;4.948;2023-07-09T03:46:19;101849.98;;;26.08;53.15
59873;BME280;50750;51.636;4.948;2023-07-09T03:48:46;101855.77;;;26.07;53.12
59873;BME280;50750;51.636;4.948;2023-07-09T03:51:13;101857.27;;;26.07;53.13
59873;BME280;50750;51.636;4.948;2023-07-09T03:53:39;101857.23;;;26.07;53.26
59873;BME280;50750;51.636;4.948;2023-07-09T03:56:06;101860.48;;;26.07;53.29
59873;BME280;50750;51.636;4.948;2023-07-09T03:58:35;101864.80;;;26.07;53.05
59873;BME280;50750;51.636;4.948;2023-07-09T04:01:02;101859.82;;;26.06;53.14
59873;BME280;50750;51.636;4.948;2023-07-09T04:03:28;101861.98;;;26.06;53.16
59873;BME280;50750;51.636;4.948;2023-07-09T04:05:54;101860.20;;;26.06;53.23
59873;BME280;50750;51.636;4.948;2023-07-09T04:08:21;101859.14;;;26.06;53.19
59873;BME280;50750;51.636;4.948;2023-07-09T04:10:47;101857.91;;;26.05;53.14
59873;BME280;50750;51.636;4.948;2023-07-09T04:13:14;101853.63;;;26.05;53.15
59873;BME280;50750;51.636;4.948;2023-07-09T04:15:41;101853.12;;;26.04;53.26
59873;BME280;50750;51.636;4.948;2023-07-09T04:18:07;101854.04;;;26.05;53.08
59873;BME280;50750;51.636;4.948;2023-07-09T04:20:33;101849.94;;;26.04;53.13
59873;BME280;50750;51.636;4.948;2023-07-09T04:23:01;101848.38;;;26.03;53.11
59873;BME280;50750;51.636;4.948;2023-07-09T04:25:28;101847.31;;;26.03;53.07
59873;BME280;50750;51.636;4.948;2023-07-09T04:27:55;101842.46;;;26.03;53.10
59873;BME280;50750;51.636;4.948;2023-07-09T04:30:21;101844.45;;;26.03;53.01
59873;BME280;50750;51.636;4.948;2023-07-09T04:32:48;101844.11;;;26.03;53.05
59873;BME280;50750;51.636;4.948;2023-07-09T04:35:14;101841.58;;;26.03;53.18
59873;BME280;50750;51.636;4.948;2023-07-09T04:37:41;101845.91;;;26.03;53.07
59873;BME280;50750;51.636;4.948;2023-07-09T04:40:09;101843.09;;;26.02;53.19
59873;BME280;50750;51.636;4.948;2023-07-09T04:42:39;101844.36;;;26.02;53.17
59873;BME280;50750;51.636;4.948;2023-07-09T04:45:08;101848.33;;;26.02;53.11
59873;BME280;50750;51.636;4.948;2023-07-09T04:47:35;101849.79;;;26.01;53.21
59873;BME280;50750;51.636;4.948;2023-07-09T04:50:03;101847.85;;;26.00;53.29
59873;BME280;50750;51.636;4.948;2023-07-09T04:52:30;101849.30;;;26.00;53.16
59873;BME280;50750;51.636;4.948;2023-07-09T04:54:57;101845.60;;;25.99;52.99
59873;BME280;50750;51.636;4.948;2023-07-09T04:57:25;101845.09;;;25.99;53.11
59873;BME280;50750;51.636;4.948;2023-07-09T04:59:51;101844.36;;;25.99;53.07
59873;BME280;50750;51.636;4.948;2023-07-09T05:02:18;101848.32;;;25.99;53.18
59873;BME280;50750;51.636;4.948;2023-07-09T05:04:44;101846.16;;;25.99;53.06
59873;BME280;50750;51.636;4.948;2023-07-09T05:07:11;101847.11;;;25.99;53.08
59873;BME280;50750;51.636;4.948;2023-07-09T05:09:37;101848.89;;;25.99;52.99
59873;BME280;50750;51.636;4.948;2023-07-09T05:12:04;101846.94;;;25.99;52.99
59873;BME280;50750;51.636;4.948;2023-07-09T05:14:30;101848.73;;;25.99;53.04
59873;BME280;50750;51.636;4.948;2023-07-09T05:16:57;101851.04;;;25.99;53.02
59873;BME280;50750;51.636;4.948;2023-07-09T05:19:23;101854.87;;;25.98;53.08
59873;BME280;50750;51.636;4.948;2023-07-09T05:21:50;101859.15;;;25.98;53.21
59873;BME280;50750;51.636;4.948;2023-07-09T05:24:16;101862.58;;;25.98;53.10
59873;BME280;50750;51.636;4.948;2023-07-09T05:26:42;101865.75;;;25.99;53.10
59873;BME280;50750;51.636;4.948;2023-07-09T05:29:09;101867.08;;;25.98;53.11
59873;BME280;50750;51.636;4.948;2023-07-09T05:31:35;101869.58;;;25.98;52.95
59873;BME280;50750;51.636;4.948;2023-07-09T05:34:02;101869.03;;;25.98;53.10
59873;BME280;50750;51.636;4.948;2023-07-09T05:36:29;101865.48;;;25.98;53.09
59873;BME280;50750;51.636;4.948;2023-07-09T05:38:56;101865.32;;;25.98;53.13
59873;BME280;50750;51.636;4.948;2023-07-09T05:41:22;101865.84;;;25.98;53.00
59873;BME280;50750;51.636;4.948;2023-07-09T05:43:50;101860.48;;;25.97;53.11
59873;BME280;50750;51.636;4.948;2023-07-09T05:46:18;101859.79;;;25.97;52.96
59873;BME280;50750;51.636;4.948;2023-07-09T05:48:45;101863.73;;;25.97;53.00
59873;BME280;50750;51.636;4.948;2023-07-09T05:51:12;101863.57;;;25.97;53.06
59873;BME280;50750;51.636;4.948;2023-07-09T05:53:38;101866.39;;;25.98;53.07
59873;BME280;50750;51.636;4.948;2023-07-09T05:56:05;101871.23;;;25.98;53.07
59873;BME280;50750;51.636;4.948;2023-07-09T05:58:32;101868.56;;;25.97;53.09
59873;BME280;50750;51.636;4.948;2023-07-09T06:00:59;101872.33;;;25.97;53.01
59873;BME280;50750;51.636;4.948;2023-07-09T06:03:26;101876.13;;;25.97;53.05
59873;BME280;50750;51.636;4.948;2023-07-09T06:05:53;101875.91;;;25.98;53.04
59873;BME280;50750;51.636;4.948;2023-07-09T06:08:20;101875.38;;;25.98;52.94
59873;BME280;50750;51.636;4.948;2023-07-09T06:11:01;101878.95;;;25.98;53.11
59873;BME280;50750;51.636;4.948;2023-07-09T06:13:29;101877.88;;;25.98;53.05
59873;BME280;50750;51.636;4.948;2023-07-09T06:15:57;101873.94;;;25.98;53.08
59873;BME280;50750;51.636;4.948;2023-07-09T06:18:25;101873.26;;;25.97;53.02
59873;BME280;50750;51.636;4.948;2023-07-09T06:21:00;101871.33;;;25.96;53.07
59873;BME280;50750;51.636;4.948;2023-07-09T06:23:28;101872.44;;;25.96;53.02
59873;BME280;50750;51.636;4.948;2023-07-09T06:25:54;101872.06;;;25.96;53.19
59873;BME280;50750;51.636;4.948;2023-07-09T06:28:25;101869.69;;;25.97;53.19
59873;BME280;50750;51.636;4.948;2023-07-09T06:30:52;101866.85;;;25.96;53.33
59873;BME280;50750;51.636;4.948;2023-07-09T06:33:19;101863.05;;;25.97;53.39
59873;BME280;50750;51.636;4.948;2023-07-09T06:35:50;101860.37;;;25.97;53.41
59873;BME280;50750;51.636;4.948;2023-07-09T06:38:18;101860.84;;;25.98;53.56
59873;BME280;50750;51.636;4.948;2023-07-09T06:40:45;101859.41;;;25.97;53.54
59873;BME280;50750;51.636;4.948;2023-07-09T06:43:12;101859.05;;;25.98;53.46
59873;BME280;50750;51.636;4.948;2023-07-09T06:45:38;101860.66;;;25.98;53.49
59873;BME280;50750;51.636;4.948;2023-07-09T06:48:05;101861.73;;;25.97;53.41
59873;BME280;50750;51.636;4.948;2023-07-09T06:50:33;101866.57;;;25.98;53.45
59873;BME280;50750;51.636;4.948;2023-07-09T06:52:59;101870.67;;;25.98;53.36
59873;BME280;50750;51.636;4.948;2023-07-09T06:55:26;101873.15;;;25.98;53.33
59873;BME280;50750;51.636;4.948;2023-07-09T06:57:52;101873.85;;;25.99;53.55
59873;BME280;50750;51.636;4.948;2023-07-09T07:00:19;101874.40;;;25.99;53.24
59873;BME280;50750;51.636;4.948;2023-07-09T07:02:46;101873.89;;;25.98;53.32
59873;BME280;50750;51.636;4.948;2023-07-09T07:05:12;101877.09;;;25.99;53.26
59873;BME280;50750;51.636;4.948;2023-07-09T07:07:39;101882.07;;;25.99;53.35
59873;BME280;50750;51.636;4.948;2023-07-09T07:10:05;101879.73;;;25.99;53.22
59873;BME280;50750;51.636;4.948;2023-07-09T07:12:42;101882.61;;;25.99;53.32
59873;BME280;50750;51.636;4.948;2023-07-09T07:15:10;101882.23;;;25.99;53.26
59873;BME280;50750;51.636;4.948;2023-07-09T07:17:37;101880.42;;;25.99;53.37
59873;BME280;50750;51.636;4.948;2023-07-09T07:20:05;101879.83;;;26.00;53.31
59873;BME280;50750;51.636;4.948;2023-07-09T07:22:32;101878.92;;;26.00;53.29
59873;BME280;50750;51.636;4.948;2023-07-09T07:24:59;101874.62;;;26.00;53.26
59873;BME280;50750;51.636;4.948;2023-07-09T07:27:25;101876.40;;;26.00;53.31
59873;BME280;50750;51.636;4.948;2023-07-09T07:29:52;101873.52;;;26.00;53.26
59873;BME280;50750;51.636;4.948;2023-07-09T07:32:18;101872.61;;;26.00;53.22
59873;BME280;50750;51.636;4.948;2023-07-09T07:34:46;101868.31;;;26.00;53.36
59873;BME280;50750;51.636;4.948;2023-07-09T07:37:14;101867.55;;;26.01;53.36
59873;BME280;50750;51.636;4.948;2023-07-09T07:39:40;101867.91;;;26.01;53.30
59873;BME280;50750;51.636;4.948;2023-07-09T07:42:07;101865.73;;;26.02;53.28
59873;BME280;50750;51.636;4.948;2023-07-09T07:44:33;101867.48;;;26.02;53.32
59873;BME280;50750;51.636;4.948;2023-07-09T07:47:00;101866.74;;;26.02;53.30
59873;BME280;50750;51.636;4.948;2023-07-09T07:49:26;101862.98;;;26.02;53.34
59873;BME280;50750;51.636;4.948;2023-07-09T07:51:53;101867.08;;;26.03;53.35
59873;BME280;50750;51.636;4.948;2023-07-09T07:54:19;101870.45;;;26.03;53.36
59873;BME280;50750;51.636;4.948;2023-07-09T07:56:46;101872.95;;;26.03;53.31
59873;BME280;50750;51.636;4.948;2023-07-09T07:59:12;101873.11;;;26.04;53.25
59873;BME280;50750;51.636;4.948;2023-07-09T08:01:40;101869.16;;;26.04;53.35
59873;BME280;50750;51.636;4.948;2023-07-09T08:04:06;101870.83;;;26.05;53.43
59873;BME280;50750;51.636;4.948;2023-07-09T08:06:33;101866.89;;;26.05;53.36
59873;BME280;50750;51.636;4.948;2023-07-09T08:08:59;101865.60;;;26.05;53.30
59873;BME280;50750;51.636;4.948;2023-07-09T08:11:26;101862.86;;;26.06;53.35
59873;BME280;50750;51.636;4.948;2023-07-09T08:13:54;101864.44;;;26.07;53.34
59873;BME280;50750;51.636;4.948;2023-07-09T08:16:20;101861.00;;;26.07;53.33
59873;BME280;50750;51.636;4.948;2023-07-09T08:18:47;101866.36;;;26.07;53.46
59873;BME280;50750;51.636;4.948;2023-07-09T08:21:13;101866.30;;;26.08;53.28
59873;BME280;50750;51.636;4.948;2023-07-09T08:23:40;101868.41;;;26.08;53.38
59873;BME280;50750;51.636;4.948;2023-07-09T08:26:06;101871.97;;;26.09;53.42
59873;BME280;50750;51.636;4.948;2023-07-09T08:28:34;101871.27;;;26.09;53.41
59873;BME280;50750;51.636;4.948;2023-07-09T08:31:01;101863.02;;;26.09;53.40
59873;BME280;50750;51.636;4.948;2023-07-09T08:33:29;101864.72;;;26.10;53.42
59873;BME280;50750;51.636;4.948;2023-07-09T08:35:56;101864.52;;;26.10;53.33
59873;BME280;50750;51.636;4.948;2023-07-09T08:38:23;101865.74;;;26.10;53.39
59873;BME280;50750;51.636;4.948;2023-07-09T08:41:02;101865.54;;;26.11;53.38
59873;BME280;50750;51.636;4.948;2023-07-09T08:43:39;101864.41;;;26.11;53.43
59873;BME280;50750;51.636;4.948;2023-07-09T08:46:33;101866.19;;;26.12;53.49
59873;BME280;50750;51.636;4.948;2023-07-09T08:49:14;101867.77;;;26.12;53.63
59873;BME280;50750;51.636;4.948;2023-07-09T08:51:42;101869.55;;;26.12;53.47
59873;BME280;50750;51.636;4.948;2023-07-09T08:54:18;101867.16;;;26.13;53.41
59873;BME280;50750;51.636;4.948;2023-07-09T08:56:46;101865.86;;;26.13;53.57
59873;BME280;50750;51.636;4.948;2023-07-09T08:59:16;101860.96;;;26.14;53.58
59873;BME280;50750;51.636;4.948;2023-07-09T09:01:52;101857.73;;;26.14;53.59
59873;BME280;50750;51.636;4.948;2023-07-09T09:04:27;101853.88;;;26.15;53.65
59873;BME280;50750;51.636;4.948;2023-07-09T09:10:00;101853.96;;;26.16;53.59
59873;BME280;50750;51.636;4.948;2023-07-09T09:12:33;101855.55;;;26.17;53.58
59873;BME280;50750;51.636;4.948;2023-07-09T09:15:15;101856.03;;;26.17;53.71
59873;BME280;50750;51.636;4.948;2023-07-09T09:17:43;101854.41;;;26.17;53.60
59873;BME280;50750;51.636;4.948;2023-07-09T09:20:16;101855.75;;;26.18;53.73
59873;BME280;50750;51.636;4.948;2023-07-09T09:22:57;101852.49;;;26.19;53.70
59873;BME280;50750;51.636;4.948;2023-07-09T09:25:32;101850.84;;;26.19;53.69
59873;BME280;50750;51.636;4.948;2023-07-09T09:28:00;101848.29;;;26.20;53.82
59873;BME280;50750;51.636;4.948;2023-07-09T09:30:27;101846.39;;;26.21;53.63
59873;BME280;50750;51.636;4.948;2023-07-09T09:33:02;101845.15;;;26.21;53.66
59873;BME280;50750;51.636;4.948;2023-07-09T09:35:34;101844.16;;;26.22;53.75
59873;BME280;50750;51.636;4.948;2023-07-09T09:38:01;101841.97;;;26.22;53.67
59873;BME280;50750;51.636;4.948;2023-07-09T09:40:33;101837.98;;;26.23;53.73
59873;BME280;50750;51.636;4.948;2023-07-09T09:43:01;101829.70;;;26.23;53.83
59873;BME280;50750;51.636;4.948;2023-07-09T09:45:38;101823.92;;;26.23;53.72
59873;BME280;50750;51.636;4.948;2023-07-09T09:48:20;101824.41;;;26.24;53.80
59873;BME280;50750;51.636;4.948;2023-07-09T09:50:47;101825.62;;;26.25;53.78
59873;BME280;50750;51.636;4.948;2023-07-09T09:53:21;101826.13;;;26.26;54.00
59873;BME280;50750;51.636;4.948;2023-07-09T09:55:48;101830.07;;;26.26;53.84
59873;BME280;50750;51.636;4.948;2023-07-09T09:58:17;101838.13;;;26.26;54.03
59873;BME280;50750;51.636;4.948;2023-07-09T10:00:56;101841.11;;;26.27;53.83
59873;BME280;50750;51.636;4.948;2023-07-09T10:03:32;101841.21;;;26.27;53.95
59873;BME280;50750;51.636;4.948;2023-07-09T10:06:06;101845.68;;;26.28;54.13
59873;BME280;50750;51.636;4.948;2023-07-09T10:11:38;101848.47;;;26.29;54.03
59873;BME280;50750;51.636;4.948;2023-07-09T10:16:45;101854.85;;;26.30;54.16
59873;BME280;50750;51.636;4.948;2023-07-09T10:25:24;101878.55;;;26.32;54.06
59873;BME280;50750;51.636;4.948;2023-07-09T10:33:23;101869.38;;;26.34;54.18
59873;BME280;50750;51.636;4.948;2023-07-09T10:36:02;101868.76;;;26.35;54.13
59873;BME280;50750;51.636;4.948;2023-07-09T10:39:10;101873.37;;;26.36;54.17
59873;BME280;50750;51.636;4.948;2023-07-09T10:41:28;101879.92;;;26.37;54.28
59873;BME280;50750;51.636;4.948;2023-07-09T10:44:23;101880.76;;;26.38;54.33
59873;BME280;50750;51.636;4.948;2023-07-09T10:46:59;101880.32;;;26.39;54.35
59873;BME280;50750;51.636;4.948;2023-07-09T10:49:40;101879.05;;;26.39;54.34
59873;BME280;50750;51.636;4.948;2023-07-09T10:52:34;101876.06;;;26.40;54.39
59873;BME280;50750;51.636;4.948;2023-07-09T10:55:12;101876.29;;;26.42;54.48
59873;BME280;50750;51.636;4.948;2023-07-09T10:57:51;101869.61;;;26.42;54.54
59873;BME280;50750;51.636;4.948;2023-07-09T11:00:23;101866.88;;;26.43;54.40
59873;BME280;50750;51.636;4.948;2023-07-09T11:03:00;101866.80;;;26.43;54.39
59873;BME280;50750;51.636;4.948;2023-07-09T11:05:28;101864.04;;;26.45;54.62
59873;BME280;50750;51.636;4.948;2023-07-09T11:08:03;101864.31;;;26.46;54.50
59873;BME280;50750;51.636;4.948;2023-07-09T11:10:36;101865.17;;;26.47;54.46
59873;BME280;50750;51.636;4.948;2023-07-09T11:16:03;101876.92;;;26.48;54.59
59873;BME280;50750;51.636;4.948;2023-07-09T11:18:33;101884.05;;;26.49;54.64
59873;BME280;50750;51.636;4.948;2023-07-09T11:21:15;101888.13;;;26.49;54.70
59873;BME280;50750;51.636;4.948;2023-07-09T11:23:52;101899.80;;;26.49;54.75
59873;BME280;50750;51.636;4.948;2023-07-09T11:26:28;101911.64;;;26.49;54.81
59873;BME280;50750;51.636;4.948;2023-07-09T11:29:16;101914.21;;;26.51;54.86
59873;BME280;50750;51.636;4.948;2023-07-09T11:31:44;101915.45;;;26.51;54.88
59873;BME280;50750;51.636;4.948;2023-07-09T11:39:42;101924.11;;;26.53;54.99
59873;BME280;50750;51.636;4.948;2023-07-09T11:45:16;101932.07;;;26.54;55.24
59873;BME280;50750;51.636;4.948;2023-07-09T11:47:47;101934.53;;;26.55;55.07
59873;BME280;50750;51.636;4.948;2023-07-09T11:50:23;101939.66;;;26.56;55.19
59873;BME280;50750;51.636;4.948;2023-07-09T11:52:56;101937.68;;;26.56;55.23
59873;BME280;50750;51.636;4.948;2023-07-09T11:55:28;101934.38;;;26.57;55.34
59873;BME280;50750;51.636;4.948;2023-07-09T11:57:55;101933.92;;;26.58;55.23
59873;BME280;50750;51.636;4.948;2023-07-09T12:00:23;101939.76;;;26.59;55.34
59873;BME280;50750;51.636;4.948;2023-07-09T12:02:50;101943.92;;;26.59;55.31
59873;BME280;50750;51.636;4.948;2023-07-09T12:05:25;101949.95;;;26.60;55.39
59873;BME280;50750;51.636;4.948;2023-07-09T12:07:52;101945.02;;;26.61;55.37
59873;BME280;50750;51.636;4.948;2023-07-09T12:10:28;101946.79;;;26.61;55.32
59873;BME280;50750;51.636;4.948;2023-07-09T12:12:58;101942.25;;;26.62;55.38
59873;BME280;50750;51.636;4.948;2023-07-09T12:15:27;101937.38;;;26.62;55.40
59873;BME280;50750;51.636;4.948;2023-07-09T12:18:03;101932.90;;;26.62;55.49
59873;BME280;50750;51.636;4.948;2023-07-09T12:20:36;101944.38;;;26.62;55.51
59873;BME280;50750;51.636;4.948;2023-07-09T12:23:25;101947.34;;;26.63;55.56
59873;BME280;50750;51.636;4.948;2023-07-09T12:25:54;101938.84;;;26.64;55.42
59873;BME280;50750;51.636;4.948;2023-07-09T12:28:21;101943.33;;;26.64;55.50
59873;BME280;50750;51.636;4.948;2023-07-09T12:30:51;101954.94;;;26.65;55.65
59873;BME280;50750;51.636;4.948;2023-07-09T12:33:20;101952.93;;;26.65;55.41
59873;BME280;50750;51.636;4.948;2023-07-09T12:35:49;101950.40;;;26.65;55.58
59873;BME280;50750;51.636;4.948;2023-07-09T12:38:21;101948.36;;;26.66;55.51
59873;BME280;50750;51.636;4.948;2023-07-09T12:40:50;101951.51;;;26.67;55.62
59873;BME280;50750;51.636;4.948;2023-07-09T12:43:25;101950.60;;;26.67;55.58
59873;BME280;50750;51.636;4.948;2023-07-09T12:45:53;101950.56;;;26.68;55.66
59873;BME280;50750;51.636;4.948;2023-07-09T12:48:23;101942.95;;;26.69;55.60
59873;BME280;50750;51.636;4.948;2023-07-09T12:50:51;101953.17;;;26.69;55.55
59873;BME280;50750;51.636;4.948;2023-07-09T12:53:19;101945.40;;;26.70;55.42
59873;BME280;50750;51.636;4.948;2023-07-09T12:55:50;101938.51;;;26.71;55.60
59873;BME280;50750;51.636;4.948;2023-07-09T12:58:31;101939.53;;;26.71;55.57
59873;BME280;50750;51.636;4.948;2023-07-09T13:01:00;101941.09;;;26.72;55.60
59873;BME280;50750;51.636;4.948;2023-07-09T13:03:32;101941.23;;;26.72;55.50
59873;BME280;50750;51.636;4.948;2023-07-09T13:05:59;101939.42;;;26.73;55.53
59873;BME280;50750;51.636;4.948;2023-07-09T13:08:29;101935.77;;;26.73;55.55
59873;BME280;50750;51.636;4.948;2023-07-09T13:10:56;101941.25;;;26.74;55.61
59873;BME280;50750;51.636;4.948;2023-07-09T13:13:24;101938.05;;;26.74;55.40
59873;BME280;50750;51.636;4.948;2023-07-09T13:15:55;101940.13;;;26.75;55.55
59873;BME280;50750;51.636;4.948;2023-07-09T13:18:24;101940.08;;;26.75;55.53
59873;BME280;50750;51.636;4.948;2023-07-09T13:20:52;101938.79;;;26.76;55.53
59873;BME280;50750;51.636;4.948;2023-07-09T13:23:28;101940.91;;;26.76;55.55
59873;BME280;50750;51.636;4.948;2023-07-09T13:25:56;101945.92;;;26.77;55.41
59873;BME280;50750;51.636;4.948;2023-07-09T13:28:29;101954.85;;;26.77;55.48
59873;BME280;50750;51.636;4.948;2023-07-09T13:30:59;101954.48;;;26.77;55.52
59873;BME280;50750;51.636;4.948;2023-07-09T13:33:26;101953.23;;;26.77;55.47
59873;BME280;50750;51.636;4.948;2023-07-09T13:35:53;101954.34;;;26.77;55.44